Time;durP1;ratioP1;P1;durP2;ratioP2;P2;SDS_P1;SDS_P2;PMS_P1;PMS_P2;Temp;Humidity;BMP_temperature;BMP_pressure;BME280_temperature;BME280_humidity;BME280_pressure;Samples;Min_cycle;Max_cycle;Signal;HPM_P1;HPM_P2
2024/02/22 00:02:03;;;;;;;95.45;64.40;;;;;;;;;;5072138;28;20077;-65
2024/02/22 00:04:29;;;;;;;101.18;67.25;;;;;;;;;;5072223;28;20040;-65
2024/02/22 00:06:55;;;;;;;101.93;66.15;;;;;;;;;;5072233;28;20365;-66
2024/02/22 00:09:20;;;;;;;98.72;65.40;;;;;;;;;;5072078;28;20108;-65
2024/02/22 00:11:46;;;;;;;96.45;64.57;;;;;;;;;;5071843;28;20616;-65
2024/02/22 00:14:14;;;;;;;100.03;65.53;;;;;;;;;;5072170;28;20021;-64
2024/02/22 00:16:40;;;;;;;98.97;65.32;;;;;;;;;;5072097;28;20032;-65
2024/02/22 00:19:06;;;;;;;101.80;65.70;;;;;;;;;;5071905;28;20032;-64
2024/02/22 00:21:32;;;;;;;95.80;63.65;;;;;;;;;;5071859;28;20507;-65
2024/02/22 00:23:58;;;;;;;96.47;64.22;;;;;;;;;;5072415;28;20021;-65
2024/02/22 00:26:25;;;;;;;97.85;63.63;;;;;;;;;;5072070;28;20020;-64
2024/02/22 00:28:51;;;;;;;94.70;63.63;;;;;;;;;;5071815;28;20025;-64
2024/02/22 00:31:17;;;;;;;101.18;64.57;;;;;;;;;;5071517;28;20515;-64
2024/02/22 00:33:45;;;;;;;98.18;64.50;;;;;;;;;;5071768;28;20020;-64
2024/02/22 00:36:11;;;;;;;94.38;60.97;;;;;;;;;;5071827;28;20540;-64
2024/02/22 00:38:37;;;;;;;90.85;59.80;;;;;;;;;;5071758;28;20112;-64
2024/02/22 00:41:04;;;;;;;91.03;60.40;;;;;;;;;;5071561;28;20025;-64
2024/02/22 00:43:30;;;;;;;93.25;62.22;;;;;;;;;;5071844;28;20025;-65
2024/02/22 00:45:56;;;;;;;91.82;61.15;;;;;;;;;;5071572;28;20039;-63
2024/02/22 00:48:22;;;;;;;90.13;59.53;;;;;;;;;;5071506;28;20086;-64
2024/02/22 00:50:48;;;;;;;91.50;59.40;;;;;;;;;;5071013;28;20479;-65
2024/02/22 00:53:16;;;;;;;87.90;60.60;;;;;;;;;;5071001;28;20031;-63
2024/02/22 00:55:42;;;;;;;90.88;60.85;;;;;;;;;;5071853;28;20117;-64
2024/02/22 00:58:08;;;;;;;91.28;57.15;;;;;;;;;;5071571;28;20078;-64
2024/02/22 01:00:34;;;;;;;87.30;58.58;;;;;;;;;;5071229;28;20112;-64
2024/02/22 01:03:00;;;;;;;85.40;57.95;;;;;;;;;;5071465;28;20056;-65
2024/02/22 01:05:26;;;;;;;88.18;57.40;;;;;;;;;;5071368;28;20638;-66
2024/02/22 01:07:52;;;;;;;88.45;56.95;;;;;;;;;;5071671;28;20086;-66
2024/02/22 01:10:18;;;;;;;85.07;55.83;;;;;;;;;;5071294;28;20029;-66
2024/02/22 01:12:44;;;;;;;86.32;57.28;;;;;;;;;;5071183;28;20025;-66
2024/02/22 01:15:10;;;;;;;86.43;54.13;;;;;;;;;;5071489;28;20016;-64
2024/02/22 01:17:36;;;;;;;83.70;54.92;;;;;;;;;;5071360;28;20032;-65
2024/02/22 01:20:04;;;;;;;81.75;54.55;;;;;;;;;;5071206;28;20585;-64
2024/02/22 01:22:30;;;;;;;83.90;55.20;;;;;;;;;;5071157;28;20056;-62
2024/02/22 01:24:56;;;;;;;77.47;51.40;;;;;;;;;;5071339;28;20086;-62
2024/02/22 01:27:22;;;;;;;87.85;54.47;;;;;;;;;;5071344;28;20133;-62
2024/02/22 01:29:48;;;;;;;79.72;51.78;;;;;;;;;;5071150;28;20027;-62
2024/02/22 01:32:14;;;;;;;79.63;51.47;;;;;;;;;;5070933;28;20431;-63
2024/02/22 01:34:40;;;;;;;80.72;52.10;;;;;;;;;;5071282;28;20044;-62
2024/02/22 01:37:07;;;;;;;75.53;50.88;;;;;;;;;;5071153;28;20029;-65
2024/02/22 01:39:34;;;;;;;79.00;51.58;;;;;;;;;;5071190;28;20031;-66
2024/02/22 01:42:00;;;;;;;75.85;50.42;;;;;;;;;;5071156;28;20024;-66
2024/02/22 01:44:28;;;;;;;74.78;49.20;;;;;;;;;;5071168;28;20036;-65
2024/02/22 01:46:54;;;;;;;77.70;49.50;;;;;;;;;;5071088;28;20123;-64
2024/02/22 01:49:20;;;;;;;72.18;48.67;;;;;;;;;;5070941;28;20024;-64
2024/02/22 01:51:46;;;;;;;76.82;48.85;;;;;;;;;;5070611;28;20024;-66
2024/02/22 01:54:13;;;;;;;71.35;46.88;;;;;;;;;;5070842;28;20016;-65
2024/02/22 01:56:39;;;;;;;77.97;49.08;;;;;;;;;;5070903;28;20028;-65
2024/02/22 01:59:06;;;;;;;71.40;47.92;;;;;;;;;;5070694;28;20089;-64
2024/02/22 02:01:32;;;;;;;74.75;49.35;;;;;;;;;;5070481;28;20103;-65
2024/02/22 02:03:58;;;;;;;69.28;47.28;;;;;;;;;;5073171;28;20024;-65
2024/02/22 02:06:24;;;;;;;74.38;47.63;;;;;;;;;;5074526;28;20025;-66
2024/02/22 02:08:51;;;;;;;80.25;45.65;;;;;;;;;;5074363;28;20021;-64
2024/02/22 02:11:17;;;;;;;66.80;44.55;;;;;;;;;;5074230;28;20511;-64
2024/02/22 02:13:43;;;;;;;68.97;45.65;;;;;;;;;;5074375;28;20021;-65
2024/02/22 02:16:09;;;;;;;72.97;46.90;;;;;;;;;;5074325;28;20025;-64
2024/02/22 02:18:35;;;;;;;69.78;45.30;;;;;;;;;;5074085;28;20492;-64
2024/02/22 02:21:24;;;;;;;69.10;44.08;;;;;;;;;;5074060;28;20031;-65
2024/02/22 02:24:08;;;;;;;69.85;44.58;;;;;;;;;;5058322;28;20037;-65
2024/02/22 02:26:34;;;;;;;62.80;42.17;;;;;;;;;;5054169;28;20025;-64
2024/02/22 02:29:00;;;;;;;62.58;42.85;;;;;;;;;;5054042;28;20116;-64
2024/02/22 02:31:28;;;;;;;64.00;42.92;;;;;;;;;;5053870;28;20544;-65
2024/02/22 02:33:54;;;;;;;63.78;42.90;;;;;;;;;;5054110;28;20083;-66
2024/02/22 02:36:20;;;;;;;62.65;42.50;;;;;;;;;;5053991;28;20025;-66
2024/02/22 02:38:46;;;;;;;66.40;41.97;;;;;;;;;;5053963;28;20028;-65
2024/02/22 02:41:12;;;;;;;64.35;40.92;;;;;;;;;;5053670;28;20025;-66
2024/02/22 02:43:38;;;;;;;59.72;40.80;;;;;;;;;;5053775;28;20033;-64
2024/02/22 02:46:04;;;;;;;59.70;40.25;;;;;;;;;;5053891;28;20440;-65
2024/02/22 02:48:30;;;;;;;64.10;42.08;;;;;;;;;;5053669;28;20055;-65
2024/02/22 02:50:56;;;;;;;58.30;40.10;;;;;;;;;;5053413;28;20060;-65
2024/02/22 02:53:22;;;;;;;61.97;41.60;;;;;;;;;;5053575;28;20388;-65
2024/02/22 02:55:48;;;;;;;59.42;40.50;;;;;;;;;;5053596;28;20033;-65
2024/02/22 02:58:14;;;;;;;61.90;40.70;;;;;;;;;;5053480;28;20021;-65
2024/02/22 03:00:40;;;;;;;61.35;40.97;;;;;;;;;;5053300;28;20094;-64
2024/02/22 03:03:06;;;;;;;57.50;38.55;;;;;;;;;;5053532;28;20050;-65
2024/02/22 03:05:32;;;;;;;59.15;41.20;;;;;;;;;;5053389;28;20025;-65
2024/02/22 03:07:58;;;;;;;59.90;39.75;;;;;;;;;;5053401;28;20580;-63
2024/02/22 03:10:24;;;;;;;58.50;40.40;;;;;;;;;;5053099;28;20012;-63
2024/02/22 03:12:51;;;;;;;59.50;39.22;;;;;;;;;;5053119;28;20152;-64
2024/02/22 03:15:17;;;;;;;59.67;38.00;;;;;;;;;;5052439;28;20025;-65
2024/02/22 03:17:43;;;;;;;58.35;39.13;;;;;;;;;;5053296;28;20021;-64
2024/02/22 03:20:12;;;;;;;59.15;38.10;;;;;;;;;;5053078;28;20504;-65
2024/02/22 03:22:39;;;;;;;52.85;37.58;;;;;;;;;;5054436;28;20408;-64
2024/02/22 03:25:05;;;;;;;57.22;36.97;;;;;;;;;;5073376;28;20024;-65
2024/02/22 03:27:34;;;;;;;54.17;37.20;;;;;;;;;;5073026;28;20031;-65
2024/02/22 03:30:03;;;;;;;58.33;38.08;;;;;;;;;;5072868;28;20029;-64
2024/02/22 03:32:29;;;;;;;55.30;36.17;;;;;;;;;;5072899;28;20087;-64
2024/02/22 03:34:55;;;;;;;52.35;36.28;;;;;;;;;;5072950;28;20032;-64
2024/02/22 03:37:21;;;;;;;57.45;36.97;;;;;;;;;;5072822;28;20100;-64
2024/02/22 03:39:50;;;;;;;55.92;37.17;;;;;;;;;;5072781;28;20545;-64
2024/02/22 03:42:19;;;;;;;54.15;34.80;;;;;;;;;;5072460;28;20031;-64
2024/02/22 03:44:45;;;;;;;54.20;35.63;;;;;;;;;;5072753;28;20099;-64
2024/02/22 03:47:11;;;;;;;48.95;32.83;;;;;;;;;;5072651;28;20437;-65
2024/02/22 03:49:37;;;;;;;53.25;35.83;;;;;;;;;;5072476;28;20109;-66
2024/02/22 03:52:04;;;;;;;49.25;34.10;;;;;;;;;;5072281;28;20025;-66
2024/02/22 03:54:31;;;;;;;51.58;34.40;;;;;;;;;;5072690;28;20423;-65
2024/02/22 03:56:57;;;;;;;52.78;34.80;;;;;;;;;;5072352;28;20029;-65
2024/02/22 03:59:23;;;;;;;49.83;34.45;;;;;;;;;;5072392;28;20023;-65
2024/02/22 04:01:52;;;;;;;50.95;33.10;;;;;;;;;;5072278;28;20029;-65
2024/02/22 04:04:18;;;;;;;49.05;33.58;;;;;;;;;;5072277;28;20488;-65
2024/02/22 04:06:44;;;;;;;45.58;31.95;;;;;;;;;;5072311;28;20085;-64
2024/02/22 04:09:10;;;;;;;48.38;32.05;;;;;;;;;;5072486;28;20028;-65
2024/02/22 04:11:37;;;;;;;52.05;33.22;;;;;;;;;;5072008;28;20031;-63
2024/02/22 04:14:03;;;;;;;46.88;32.00;;;;;;;;;;5072108;28;20050;-63
2024/02/22 04:16:29;;;;;;;49.15;32.50;;;;;;;;;;5072109;28;20020;-64
2024/02/22 04:18:55;;;;;;;45.00;30.60;;;;;;;;;;5071711;28;20032;-64
2024/02/22 04:21:20;;;;;;;47.20;31.92;;;;;;;;;;5071901;28;20029;-64
2024/02/22 04:23:46;;;;;;;47.90;31.48;;;;;;;;;;5071908;28;20047;-65
2024/02/22 04:26:12;;;;;;;49.10;32.22;;;;;;;;;;5071872;28;20029;-66
2024/02/22 04:28:38;;;;;;;45.08;29.80;;;;;;;;;;5071884;28;20091;-65
2024/02/22 04:31:05;;;;;;;45.13;30.65;;;;;;;;;;5071610;28;20028;-65
2024/02/22 04:33:32;;;;;;;44.03;30.00;;;;;;;;;;5071865;28;20024;-64
2024/02/22 04:35:58;;;;;;;45.15;29.70;;;;;;;;;;5070510;28;20021;-64
2024/02/22 04:38:24;;;;;;;42.75;29.00;;;;;;;;;;5071952;28;20021;-65
2024/02/22 04:40:51;;;;;;;44.00;30.25;;;;;;;;;;5071650;28;20102;-64
2024/02/22 04:43:17;;;;;;;45.03;29.27;;;;;;;;;;5071834;28;20025;-64
2024/02/22 04:45:43;;;;;;;44.97;30.08;;;;;;;;;;5071635;28;20029;-64
2024/02/22 04:48:09;;;;;;;46.97;28.92;;;;;;;;;;5071515;28;20031;-64
2024/02/22 04:50:35;;;;;;;40.10;27.42;;;;;;;;;;5071339;28;20028;-63
2024/02/22 04:53:04;;;;;;;47.08;28.85;;;;;;;;;;5071662;28;20020;-64
2024/02/22 04:55:30;;;;;;;43.05;28.17;;;;;;;;;;5071687;28;20027;-64
2024/02/22 04:57:56;;;;;;;48.08;29.85;;;;;;;;;;5071382;28;20082;-63
2024/02/22 05:00:22;;;;;;;48.30;26.95;;;;;;;;;;5071405;28;20021;-63
2024/02/22 05:02:49;;;;;;;56.25;28.52;;;;;;;;;;5071300;28;20450;-64
2024/02/22 05:05:15;;;;;;;52.55;28.05;;;;;;;;;;5071658;28;20384;-62
2024/02/22 05:07:41;;;;;;;50.25;28.38;;;;;;;;;;5074867;28;20028;-62
2024/02/22 05:10:07;;;;;;;41.65;25.98;;;;;;;;;;5079017;28;20039;-60
2024/02/22 05:12:33;;;;;;;51.03;28.60;;;;;;;;;;5080797;28;20021;-59
2024/02/22 05:14:59;;;;;;;44.85;27.13;;;;;;;;;;5077566;28;20012;-61
2024/02/22 05:17:25;;;;;;;44.28;27.58;;;;;;;;;;5081589;28;20012;-62
2024/02/22 05:19:51;;;;;;;47.08;26.48;;;;;;;;;;5026929;23;20046;-63
2024/02/22 05:22:17;;;;;;;40.80;25.20;;;;;;;;;;4982963;28;20030;-64
2024/02/22 05:24:43;;;;;;;58.22;30.13;;;;;;;;;;5001599;28;20053;-64
2024/02/22 05:27:10;;;;;;;55.47;28.90;;;;;;;;;;4971665;28;20404;-65
2024/02/22 05:29:36;;;;;;;49.15;28.00;;;;;;;;;;4976231;28;20027;-65
2024/02/22 05:32:03;;;;;;;51.53;28.63;;;;;;;;;;4969149;28;20054;-65
2024/02/22 05:34:29;;;;;;;46.90;28.15;;;;;;;;;;4968490;28;20046;-64
2024/02/22 05:36:55;;;;;;;54.22;29.02;;;;;;;;;;4968340;28;20436;-65
2024/02/22 05:39:21;;;;;;;53.83;28.17;;;;;;;;;;4972288;28;20019;-65
2024/02/22 05:41:48;;;;;;;52.03;29.58;;;;;;;;;;4972888;28;20023;-65
2024/02/22 05:44:14;;;;;;;58.65;29.35;;;;;;;;;;4997110;28;20076;-64
2024/02/22 05:46:40;;;;;;;57.03;27.65;;;;;;;;;;4986930;28;20030;-63
2024/02/22 05:49:06;;;;;;;49.13;26.95;;;;;;;;;;4987674;28;20494;-64
2024/02/22 05:51:32;;;;;;;53.75;27.80;;;;;;;;;;4975981;28;20113;-64
2024/02/22 05:53:59;;;;;;;46.60;26.67;;;;;;;;;;4976139;28;20387;-64
2024/02/22 05:56:25;;;;;;;46.25;25.67;;;;;;;;;;4992010;28;20052;-64
2024/02/22 05:58:51;;;;;;;44.85;26.02;;;;;;;;;;4991951;28;20067;-70
2024/02/22 06:01:17;;;;;;;55.03;26.70;;;;;;;;;;4991865;28;20105;-64
2024/02/22 06:03:43;;;;;;;46.83;25.50;;;;;;;;;;4982608;28;20112;-67
2024/02/22 06:06:09;;;;;;;42.42;22.77;;;;;;;;;;4984349;28;20019;-65
2024/02/22 06:08:35;;;;;;;45.45;24.50;;;;;;;;;;4988762;28;20026;-65
2024/02/22 06:11:02;;;;;;;44.20;24.60;;;;;;;;;;4991638;28;20058;-66
2024/02/22 06:13:28;;;;;;;41.90;23.08;;;;;;;;;;4973813;28;20542;-67
2024/02/22 06:15:54;;;;;;;43.78;24.08;;;;;;;;;;4972400;28;20035;-66
2024/02/22 06:18:20;;;;;;;42.63;23.35;;;;;;;;;;4972246;28;20027;-66
2024/02/22 06:20:46;;;;;;;41.90;22.48;;;;;;;;;;4978156;28;20049;-66
2024/02/22 06:23:14;;;;;;;40.20;22.48;;;;;;;;;;4977460;28;20096;-66
2024/02/22 06:25:40;;;;;;;39.72;22.40;;;;;;;;;;4972142;28;20030;-66
2024/02/22 06:28:09;;;;;;;39.88;21.75;;;;;;;;;;4972181;28;20414;-65
2024/02/22 06:30:35;;;;;;;48.95;24.15;;;;;;;;;;4971875;28;20051;-65
2024/02/22 06:33:01;;;;;;;44.65;24.88;;;;;;;;;;4972129;28;20026;-65
2024/02/22 06:35:27;;;;;;;53.20;24.23;;;;;;;;;;4972122;28;20527;-66
2024/02/22 06:37:54;;;;;;;45.40;22.80;;;;;;;;;;4972153;28;20033;-66
2024/02/22 06:40:20;;;;;;;43.60;23.98;;;;;;;;;;4972114;28;20595;-66
2024/02/22 06:42:47;;;;;;;45.55;23.00;;;;;;;;;;4973221;28;20030;-66
2024/02/22 06:45:14;;;;;;;43.20;23.85;;;;;;;;;;4974142;28;20113;-65
2024/02/22 06:47:40;;;;;;;40.38;22.40;;;;;;;;;;4978884;28;20055;-66
2024/02/22 06:50:06;;;;;;;42.38;22.90;;;;;;;;;;4977436;28;20038;-66
2024/02/22 06:52:32;;;;;;;42.58;22.00;;;;;;;;;;4979827;28;20055;-66
2024/02/22 06:54:58;;;;;;;40.22;20.88;;;;;;;;;;4977127;28;20080;-66
2024/02/22 06:57:24;;;;;;;43.85;20.27;;;;;;;;;;4976495;28;20038;-66
2024/02/22 06:59:50;;;;;;;41.25;20.17;;;;;;;;;;4973103;28;20058;-67
2024/02/22 07:02:18;;;;;;;36.40;20.40;;;;;;;;;;4971632;28;20026;-65
2024/02/22 07:04:45;;;;;;;39.47;20.73;;;;;;;;;;4971872;28;20026;-65
2024/02/22 07:07:11;;;;;;;42.83;20.45;;;;;;;;;;4971855;28;20027;-66
2024/02/22 07:09:38;;;;;;;37.88;20.17;;;;;;;;;;4971549;28;20030;-65
2024/02/22 07:12:04;;;;;;;40.38;20.27;;;;;;;;;;4971418;28;20031;-66
2024/02/22 07:14:30;;;;;;;35.92;19.58;;;;;;;;;;4971517;28;20027;-66
2024/02/22 07:16:56;;;;;;;34.00;19.63;;;;;;;;;;4971406;28;20019;-66
2024/02/22 07:19:22;;;;;;;42.45;20.50;;;;;;;;;;4971128;28;20042;-66
2024/02/22 07:21:48;;;;;;;33.92;18.30;;;;;;;;;;4971184;28;20019;-66
2024/02/22 07:24:15;;;;;;;35.72;19.38;;;;;;;;;;4971279;28;20505;-67
2024/02/22 07:26:41;;;;;;;33.53;17.88;;;;;;;;;;4971209;28;20023;-66
2024/02/22 07:29:07;;;;;;;35.95;19.00;;;;;;;;;;4971109;28;20026;-66
2024/02/22 07:31:34;;;;;;;33.30;19.17;;;;;;;;;;4970828;28;20027;-66
2024/02/22 07:34:00;;;;;;;29.13;17.23;;;;;;;;;;4971266;28;20114;-66
2024/02/22 07:36:26;;;;;;;34.20;18.13;;;;;;;;;;4971165;28;20046;-67
2024/02/22 07:38:52;;;;;;;32.83;19.17;;;;;;;;;;4970981;28;20049;-66
2024/02/22 07:41:18;;;;;;;29.48;16.75;;;;;;;;;;4970678;28;20019;-67
2024/02/22 07:43:45;;;;;;;35.08;18.08;;;;;;;;;;4970976;28;20023;-67
2024/02/22 07:46:11;;;;;;;38.47;18.20;;;;;;;;;;4971007;28;20050;-67
2024/02/22 07:48:41;;;;;;;31.02;16.67;;;;;;;;;;4970810;28;20061;-66
2024/02/22 07:51:07;;;;;;;32.13;17.55;;;;;;;;;;4970786;28;20451;-67
2024/02/22 07:53:34;;;;;;;34.13;18.15;;;;;;;;;;4970961;28;20046;-66
2024/02/22 07:56:04;;;;;;;31.23;16.83;;;;;;;;;;4970915;28;20031;-66
2024/02/22 07:58:32;;;;;;;31.40;16.60;;;;;;;;;;4970572;28;20121;-66
2024/02/22 08:00:59;;;;;;;28.90;16.85;;;;;;;;;;4970126;28;20038;-67
2024/02/22 08:03:25;;;;;;;26.60;16.20;;;;;;;;;;4970968;28;20027;-67
2024/02/22 08:05:52;;;;;;;31.15;16.75;;;;;;;;;;4970929;28;20042;-67
2024/02/22 08:08:19;;;;;;;30.33;16.70;;;;;;;;;;4970751;28;20030;-67
2024/02/22 08:10:45;;;;;;;30.35;16.13;;;;;;;;;;4970200;28;20037;-67
2024/02/22 08:13:12;;;;;;;28.75;16.58;;;;;;;;;;4970612;28;20019;-67
2024/02/22 08:15:38;;;;;;;26.08;15.95;;;;;;;;;;4970581;28;20057;-65
2024/02/22 08:18:05;;;;;;;30.13;16.13;;;;;;;;;;4970656;28;20189;-66
2024/02/22 08:20:33;;;;;;;27.13;15.43;;;;;;;;;;4970598;28;20050;-66
2024/02/22 08:23:01;;;;;;;26.48;15.32;;;;;;;;;;4970581;28;20025;-67
2024/02/22 08:25:27;;;;;;;25.10;14.95;;;;;;;;;;4970385;28;20030;-67
2024/02/22 08:27:54;;;;;;;26.63;15.65;;;;;;;;;;4970354;28;20049;-67
2024/02/22 08:30:21;;;;;;;26.33;15.43;;;;;;;;;;4970498;28;20035;-66
2024/02/22 08:32:46;;;;;;;29.10;14.82;;;;;;;;;;4970014;28;20038;-66
2024/02/22 08:35:12;;;;;;;26.75;16.17;;;;;;;;;;4970266;28;20022;-66
2024/02/22 08:37:39;;;;;;;29.10;14.75;;;;;;;;;;4970367;28;20034;-66
2024/02/22 08:40:05;;;;;;;26.67;13.85;;;;;;;;;;4952907;28;20023;-65
2024/02/22 08:42:31;;;;;;;23.35;14.57;;;;;;;;;;4969955;28;20063;-64
2024/02/22 08:44:58;;;;;;;23.80;14.27;;;;;;;;;;4970205;28;20462;-64
2024/02/22 08:47:24;;;;;;;26.27;15.07;;;;;;;;;;4952777;28;20042;-65
2024/02/22 08:49:50;;;;;;;26.63;14.05;;;;;;;;;;4970223;28;20045;-65
2024/02/22 08:52:16;;;;;;;23.40;13.73;;;;;;;;;;4969962;28;20023;-65
2024/02/22 08:54:42;;;;;;;22.45;13.77;;;;;;;;;;4970101;28;20554;-65
2024/02/22 08:57:09;;;;;;;24.10;13.65;;;;;;;;;;4952828;28;20026;-64
2024/02/22 08:59:35;;;;;;;21.67;12.60;;;;;;;;;;4970136;28;20092;-64
2024/02/22 09:02:01;;;;;;;25.30;13.88;;;;;;;;;;4969946;28;20026;-65
2024/02/22 09:04:27;;;;;;;21.30;13.35;;;;;;;;;;4970065;28;20110;-66
2024/02/22 09:06:53;;;;;;;23.35;12.80;;;;;;;;;;4969870;28;20019;-66
2024/02/22 09:09:19;;;;;;;23.20;13.45;;;;;;;;;;4969675;28;20479;-64
2024/02/22 09:11:45;;;;;;;20.85;11.85;;;;;;;;;;4969645;28;20141;-65
2024/02/22 09:14:11;;;;;;;20.38;12.55;;;;;;;;;;4972286;28;20057;-64
2024/02/22 09:16:39;;;;;;;21.75;12.88;;;;;;;;;;4973174;28;20031;-65
2024/02/22 09:19:05;;;;;;;19.88;12.18;;;;;;;;;;4973090;28;20031;-65
2024/02/22 09:21:31;;;;;;;20.48;11.52;;;;;;;;;;4955540;28;20027;-65
2024/02/22 09:23:57;;;;;;;23.75;12.23;;;;;;;;;;4973028;28;20027;-65
2024/02/22 09:26:23;;;;;;;18.95;12.13;;;;;;;;;;4973158;28;20475;-65
2024/02/22 09:28:49;;;;;;;18.40;11.27;;;;;;;;;;4973267;28;20054;-65
2024/02/22 09:31:17;;;;;;;20.48;12.50;;;;;;;;;;4972788;28;20139;-64
2024/02/22 09:33:43;;;;;;;22.50;12.23;;;;;;;;;;4955700;28;20026;-64
2024/02/22 09:36:10;;;;;;;20.20;11.75;;;;;;;;;;4975666;28;20029;-64
2024/02/22 09:38:36;;;;;;;19.90;11.30;;;;;;;;;;4973911;28;20383;-65
2024/02/22 09:41:02;;;;;;;17.40;11.40;;;;;;;;;;4955610;28;20031;-65
2024/02/22 09:43:29;;;;;;;20.42;11.90;;;;;;;;;;4973694;28;20121;-64
2024/02/22 09:45:55;;;;;;;21.92;11.48;;;;;;;;;;4973330;28;20035;-64
2024/02/22 09:48:22;;;;;;;18.15;10.55;;;;;;;;;;4977533;28;20101;-66
2024/02/22 09:50:49;;;;;;;17.17;11.20;;;;;;;;;;4972838;28;20027;-64
2024/02/22 09:53:15;;;;;;;18.88;10.57;;;;;;;;;;4972766;28;20073;-63
2024/02/22 09:55:41;;;;;;;17.52;10.48;;;;;;;;;;4972891;28;20041;-64
2024/02/22 09:58:07;;;;;;;16.38;10.23;;;;;;;;;;4955497;28;20027;-64
2024/02/22 10:00:33;;;;;;;16.88;10.00;;;;;;;;;;4972477;28;20023;-63
2024/02/22 10:03:00;;;;;;;17.25;9.93;;;;;;;;;;4972678;28;20023;-64
2024/02/22 10:05:36;;;;;;;17.67;10.32;;;;;;;;;;4972412;28;20038;-66
2024/02/22 10:08:09;;;;;;;17.63;9.82;;;;;;;;;;4972583;28;20030;-64
2024/02/22 10:10:35;;;;;;;15.77;9.88;;;;;;;;;;4972499;28;20034;-64
2024/02/22 10:13:01;;;;;;;16.08;9.80;;;;;;;;;;4972257;28;20038;-65
2024/02/22 10:15:29;;;;;;;18.65;10.10;;;;;;;;;;4972437;28;20026;-65
2024/02/22 10:17:55;;;;;;;15.63;9.70;;;;;;;;;;4972458;28;20100;-65
2024/02/22 10:20:30;;;;;;;16.77;9.82;;;;;;;;;;4972002;28;20065;-66
2024/02/22 10:23:04;;;;;;;14.65;9.25;;;;;;;;;;4972306;28;20030;-66
2024/02/22 10:25:31;;;;;;;14.93;8.48;;;;;;;;;;4972172;28;20026;-66
2024/02/22 10:27:57;;;;;;;16.45;9.70;;;;;;;;;;4972307;28;20023;-66
2024/02/22 10:30:25;;;;;;;18.48;9.23;;;;;;;;;;4971906;28;20409;-65
2024/02/22 10:32:55;;;;;;;18.15;10.02;;;;;;;;;;4971892;28;20471;-65
2024/02/22 10:35:23;;;;;;;17.50;8.95;;;;;;;;;;4972250;28;20076;-66
2024/02/22 10:37:53;;;;;;;16.25;9.82;;;;;;;;;;4972266;28;20026;-66
2024/02/22 10:40:20;;;;;;;13.48;7.88;;;;;;;;;;4972012;28;20030;-66
2024/02/22 10:42:49;;;;;;;14.45;8.50;;;;;;;;;;4971968;28;20113;-65
2024/02/22 10:45:15;;;;;;;14.38;8.20;;;;;;;;;;4971880;28;20035;-67
2024/02/22 10:47:41;;;;;;;18.20;9.43;;;;;;;;;;4971918;28;20081;-65
2024/02/22 10:50:08;;;;;;;12.55;8.02;;;;;;;;;;4971784;28;20039;-66
2024/02/22 10:52:42;;;;;;;14.55;8.50;;;;;;;;;;4971684;28;20049;-66
2024/02/22 10:55:13;;;;;;;15.25;8.57;;;;;;;;;;4971844;28;20394;-65
2024/02/22 10:57:39;;;;;;;14.07;8.10;;;;;;;;;;4971733;28;20045;-66
2024/02/22 11:00:06;;;;;;;14.80;8.68;;;;;;;;;;4971617;28;20073;-65
2024/02/22 11:02:32;;;;;;;13.45;8.23;;;;;;;;;;4971637;28;20102;-66
2024/02/22 11:04:59;;;;;;;12.18;7.88;;;;;;;;;;4971815;28;20493;-66
2024/02/22 11:07:27;;;;;;;11.82;7.93;;;;;;;;;;4971755;28;20038;-65
2024/02/22 11:09:54;;;;;;;13.18;8.18;;;;;;;;;;4971546;28;20031;-66
2024/02/22 11:12:20;;;;;;;13.77;8.32;;;;;;;;;;4971340;28;20022;-66
2024/02/22 11:14:46;;;;;;;13.75;8.05;;;;;;;;;;4971461;28;20478;-66
2024/02/22 11:17:21;;;;;;;13.77;7.97;;;;;;;;;;4971401;28;20076;-66
2024/02/22 11:19:52;;;;;;;13.07;8.45;;;;;;;;;;4972032;28;20039;-66
2024/02/22 11:22:18;;;;;;;;;;;;;;;;;;4971783;28;20552;-66
2024/02/22 11:24:46;;;;;;;11.82;6.75;;;;;;;;;;4971410;28;19906;-66
2024/02/22 11:27:19;;;;;;;11.50;7.30;;;;;;;;;;4971268;28;20445;-66
2024/02/22 11:29:45;;;;;;;11.52;7.38;;;;;;;;;;4971135;28;20039;-65
2024/02/22 11:32:12;;;;;;;11.88;7.75;;;;;;;;;;4971034;28;20030;-65
2024/02/22 11:34:39;;;;;;;11.68;7.20;;;;;;;;;;4971224;28;20453;-65
2024/02/22 11:37:18;;;;;;;12.60;7.65;;;;;;;;;;4970424;28;20031;-65
2024/02/22 11:39:44;;;;;;;11.48;7.40;;;;;;;;;;4970892;28;20022;-66
2024/02/22 11:42:18;;;;;;;10.32;6.57;;;;;;;;;;4970791;28;20050;-65
2024/02/22 11:44:44;;;;;;;12.25;7.70;;;;;;;;;;4969485;28;20542;-66
2024/02/22 11:47:13;;;;;;;10.98;6.60;;;;;;;;;;4971728;28;20030;-65
2024/02/22 11:49:39;;;;;;;12.07;7.53;;;;;;;;;;4971157;28;20374;-65
2024/02/22 11:52:07;;;;;;;12.00;7.13;;;;;;;;;;4970957;28;20065;-65
2024/02/22 11:54:33;;;;;;;12.10;6.90;;;;;;;;;;4996517;28;20026;-65
2024/02/22 11:57:02;;;;;;;12.90;7.18;;;;;;;;;;4978363;28;20021;-65
2024/02/22 11:59:28;;;;;;;11.57;7.28;;;;;;;;;;4980937;28;20068;-66
2024/02/22 12:01:54;;;;;;;12.57;7.53;;;;;;;;;;4978869;28;20030;-66
2024/02/22 12:04:20;;;;;;;9.35;6.47;;;;;;;;;;4965458;28;20584;-65
2024/02/22 12:06:47;;;;;;;11.98;5.60;;;;;;;;;;5017205;28;20119;-64
2024/02/22 12:09:13;;;;;;;8.50;5.30;;;;;;;;;;5054853;28;20036;-65
2024/02/22 12:11:40;;;;;;;9.48;4.88;;;;;;;;;;5074065;28;20025;-65
2024/02/22 12:14:06;;;;;;;8.25;5.28;;;;;;;;;;5076694;28;20024;-66
2024/02/22 12:16:37;;;;;;;8.30;4.80;;;;;;;;;;4975385;28;20031;-65
2024/02/22 12:19:03;;;;;;;8.02;4.80;;;;;;;;;;4954749;28;20031;-65
2024/02/22 12:21:30;;;;;;;9.05;4.68;;;;;;;;;;4972104;28;20080;-65
2024/02/22 12:24:05;;;;;;;8.40;4.57;;;;;;;;;;4971502;28;20027;-65
2024/02/22 12:26:31;;;;;;;10.18;5.13;;;;;;;;;;4969068;28;20081;-64
2024/02/22 12:28:57;;;;;;;9.10;4.40;;;;;;;;;;4970432;28;20027;-64
2024/02/22 12:31:24;;;;;;;9.52;4.80;;;;;;;;;;4970221;28;20030;-64
2024/02/22 12:33:51;;;;;;;6.75;4.13;;;;;;;;;;4970554;28;20057;-64
2024/02/22 12:36:17;;;;;;;7.22;4.45;;;;;;;;;;4971700;28;20114;-64
2024/02/22 12:38:44;;;;;;;7.07;4.28;;;;;;;;;;4969062;28;20026;-65
2024/02/22 12:41:10;;;;;;;7.53;4.88;;;;;;;;;;4970528;28;20022;-65
2024/02/22 12:43:36;;;;;;;9.20;4.72;;;;;;;;;;4970275;28;20058;-66
2024/02/22 12:46:02;;;;;;;6.85;4.10;;;;;;;;;;4970190;28;20038;-65
2024/02/22 12:48:28;;;;;;;7.97;4.03;;;;;;;;;;4952774;28;20589;-65
2024/02/22 12:50:54;;;;;;;6.40;3.53;;;;;;;;;;4969830;28;20441;-65
2024/02/22 12:53:21;;;;;;;7.45;4.22;;;;;;;;;;4970081;28;20033;-65
2024/02/22 12:55:47;;;;;;;7.65;4.20;;;;;;;;;;4970134;28;20027;-66
2024/02/22 12:58:13;;;;;;;6.75;4.20;;;;;;;;;;4969969;28;20033;-65
2024/02/22 13:00:39;;;;;;;7.18;4.32;;;;;;;;;;4969823;28;20102;-65
2024/02/22 13:03:05;;;;;;;7.55;4.05;;;;;;;;;;4970215;28;20119;-65
2024/02/22 13:05:31;;;;;;;8.88;4.53;;;;;;;;;;4969977;28;20030;-65
2024/02/22 13:07:58;;;;;;;6.45;3.92;;;;;;;;;;4970009;28;20055;-64
2024/02/22 13:10:24;;;;;;;7.95;4.22;;;;;;;;;;4969743;28;20030;-66
2024/02/22 13:12:51;;;;;;;7.03;3.90;;;;;;;;;;4969735;28;20041;-66
2024/02/22 13:15:17;;;;;;;6.15;3.72;;;;;;;;;;4969748;28;20014;-66
2024/02/22 13:17:46;;;;;;;6.72;4.45;;;;;;;;;;4970045;28;20027;-65
2024/02/22 13:20:12;;;;;;;5.57;3.67;;;;;;;;;;4969649;28;20459;-65
2024/02/22 13:22:39;;;;;;;5.93;3.80;;;;;;;;;;4969607;28;20041;-66
2024/02/22 13:25:05;;;;;;;7.38;3.88;;;;;;;;;;4969853;28;20035;-66
2024/02/22 13:27:35;;;;;;;6.07;3.78;;;;;;;;;;4969516;28;20027;-64
2024/02/22 13:30:01;;;;;;;4.60;3.25;;;;;;;;;;4969624;28;20076;-64
2024/02/22 13:32:27;;;;;;;5.80;4.05;;;;;;;;;;4969432;28;20394;-65
2024/02/22 13:34:53;;;;;;;6.32;4.13;;;;;;;;;;4969630;28;20094;-65
2024/02/22 13:37:19;;;;;;;4.80;3.50;;;;;;;;;;4969531;28;20446;-65
2024/02/22 13:39:45;;;;;;;5.35;3.40;;;;;;;;;;4969436;28;20031;-65
2024/02/22 13:42:13;;;;;;;5.63;3.60;;;;;;;;;;4969315;28;20034;-66
2024/02/22 13:44:39;;;;;;;6.30;3.53;;;;;;;;;;4969625;28;20027;-66
2024/02/22 13:47:05;;;;;;;6.03;3.70;;;;;;;;;;4952104;28;20080;-65
2024/02/22 13:49:31;;;;;;;7.13;3.40;;;;;;;;;;4969348;28;20035;-65
2024/02/22 13:51:57;;;;;;;5.28;3.45;;;;;;;;;;4969059;28;20092;-66
2024/02/22 13:54:24;;;;;;;7.15;3.40;;;;;;;;;;4952095;28;20034;-65
2024/02/22 13:56:50;;;;;;;5.78;3.28;;;;;;;;;;4969179;28;20431;-65
2024/02/22 13:59:16;;;;;;;5.40;3.33;;;;;;;;;;4970374;28;20023;-64
2024/02/22 14:01:42;;;;;;;4.80;3.38;;;;;;;;;;4972607;28;20054;-65
2024/02/22 14:04:08;;;;;;;7.03;3.90;;;;;;;;;;4972789;28;20030;-65
2024/02/22 14:06:35;;;;;;;5.38;3.08;;;;;;;;;;4972580;28;20031;-66
2024/02/22 14:09:01;;;;;;;5.80;3.35;;;;;;;;;;4993691;28;20502;-66
2024/02/22 14:11:27;;;;;;;4.47;2.95;;;;;;;;;;4952750;28;20540;-66
2024/02/22 14:13:53;;;;;;;4.35;3.25;;;;;;;;;;4951724;29;20106;-66
2024/02/22 14:16:19;;;;;;;8.02;3.17;;;;;;;;;;4967758;28;20019;-66
2024/02/22 14:18:46;;;;;;;4.90;2.90;;;;;;;;;;4952884;29;20042;-67
2024/02/22 14:21:15;;;;;;;3.97;2.85;;;;;;;;;;4967662;28;20027;-64